John F Kennedy International Airport (JFK/KJFK)




Flight Aircraft Arriving
CPX2296 B744
B763
KSDF - Louisville International Airport-Standiford Field
United StatesKentucky Louisville, Kentucky
Flight Aircraft Departing
CPX2293 B744
B763
KSDF - Louisville International Airport-Standiford Field
United StatesKentucky Louisville, Kentucky
Airport Information
Location: New York, US
Coordinates: 40.6398 / -73.7787
Elevation:
Time Offset:
Local Time:
UTC Time:
Jet A Price: $0.98/lbs

Current Weather
METAR: KJFK 270851Z 10006KT 10SM -RA BKN022 BKN034 OVC046 04/01 A3036 RMK AO2 SLP279 P0001 60001 T00390011 58030
TAF: KJFK 270835Z 2709/2812 15007KT P6SM SCT025 OVC040 TEMPO 2709/2711 6SM -RA BKN025 FM271100 11010KT 3SM -RA SCT007 OVC015 FM271500 13012KT 2SM -RA BR SCT004 OVC007 FM271800 VRB05KT 1SM -DZ BR OVC004 FM272100 25009KT P6SM BKN007 FM280000 28009KT P6SM SCT007 FM280300 31007KT P6SM BKN250

Recent Arrivals
Date Flight Type Depart
11/27/2019 CPX2293 B763 Louisville International Airport-Standiford Field (KSDF)
Recent Departures
Date Flight Type Arrive
11/28/2019 CPX2296 B763 Louisville International Airport-Standiford Field (KSDF)